createdAt,value
2023-03-07T00:02:02.264Z,5.39
2023-03-07T00:07:05.763Z,5.28
2023-03-07T00:12:10.697Z,5.17
2023-03-07T00:17:14.204Z,5.06
2023-03-07T00:22:17.535Z,4.96
2023-03-07T00:27:20.939Z,4.86
2023-03-07T00:32:25.681Z,4.76
2023-03-07T00:37:31.051Z,4.69
2023-03-07T00:42:34.555Z,4.61
2023-03-07T00:47:37.893Z,4.56
2023-03-07T00:52:41.497Z,4.53
2023-03-07T00:57:45.120Z,4.52
2023-03-07T01:02:48.743Z,4.51
2023-03-07T01:07:52.729Z,4.47
2023-03-07T01:12:56.151Z,4.43
2023-03-07T01:17:59.637Z,4.43
2023-03-07T01:23:04.057Z,4.41
2023-03-07T01:28:09.683Z,4.42
2023-03-07T01:33:13.021Z,4.47
2023-03-07T01:38:16.475Z,4.52
2023-03-07T01:43:34.699Z,4.56
2023-03-07T01:48:44.966Z,4.57
2023-03-07T01:53:51.077Z,4.58
2023-03-07T01:58:55.698Z,4.59
2023-03-07T02:04:11.886Z,4.60
2023-03-07T02:09:18.884Z,4.61
2023-03-07T02:14:22.056Z,4.66
2023-03-07T02:19:31.109Z,4.68
2023-03-07T02:24:55.891Z,4.72
2023-03-07T02:29:59.273Z,4.74
2023-03-07T02:35:10.667Z,4.76
2023-03-07T02:40:16.803Z,4.79
2023-03-07T02:45:20.469Z,4.83
2023-03-07T02:50:23.981Z,4.84
2023-03-07T02:55:28.763Z,4.84
2023-03-07T03:00:35.873Z,4.87
2023-03-07T03:05:40.424Z,4.88
2023-03-07T03:10:43.933Z,4.86
2023-03-07T03:15:48.250Z,4.83
2023-03-07T03:20:51.562Z,4.81
2023-03-07T03:26:02.690Z,4.80
2023-03-07T03:31:11.187Z,4.80
2023-03-07T03:36:17.553Z,4.79
2023-03-07T03:41:23.597Z,4.80
2023-03-07T03:46:27.123Z,4.82
2023-03-07T03:51:30.985Z,4.82
2023-03-07T03:56:34.604Z,4.77
2023-03-07T04:01:38.761Z,5.85
2023-03-07T04:06:43.183Z,9.27
2023-03-07T04:11:47.353Z,10.12
2023-03-07T04:16:51.264Z,8.54
2023-03-07T04:21:54.982Z,7.57
2023-03-07T04:26:58.547Z,6.88
2023-03-07T04:32:02.689Z,6.37
2023-03-07T04:37:05.955Z,5.94
2023-03-07T04:42:09.462Z,5.57
2023-03-07T04:47:13.620Z,5.24
2023-03-07T04:52:17.113Z,5.00
2023-03-07T04:57:20.980Z,4.84
2023-03-07T05:02:31.034Z,4.75
2023-03-07T05:07:37.422Z,4.68
2023-03-07T05:12:43.071Z,4.68
2023-03-07T05:17:48.568Z,4.74
2023-03-07T05:22:52.146Z,4.82
2023-03-07T05:27:55.795Z,4.91
2023-03-07T05:32:59.257Z,4.98
2023-03-07T05:38:03.371Z,5.04
2023-03-07T05:43:08.414Z,5.10
2023-03-07T05:48:11.762Z,5.18
2023-03-07T05:53:15.126Z,5.23
2023-03-07T05:58:18.715Z,5.31
2023-03-07T06:03:23.582Z,5.38
2023-03-07T06:08:27.365Z,5.46
2023-03-07T06:13:31.514Z,5.54
2023-03-07T06:18:34.872Z,5.62
2023-03-07T06:23:39.129Z,5.68
2023-03-07T06:28:46.298Z,5.74
2023-03-07T06:33:51.232Z,5.78
2023-03-07T06:38:55.436Z,5.82
2023-03-07T06:43:59.669Z,5.89
2023-03-07T06:49:06.026Z,5.94
2023-03-07T06:54:10.352Z,6.01
2023-03-07T06:59:14.552Z,6.06
2023-03-07T07:04:18.483Z,6.15
2023-03-07T07:09:22.171Z,6.22
2023-03-07T07:14:26.042Z,6.29
2023-03-07T07:19:29.540Z,6.35
2023-03-07T07:24:33.787Z,6.42
2023-03-07T07:29:37.167Z,6.50
2023-03-07T07:34:40.536Z,6.58
2023-03-07T07:39:44.315Z,6.67
2023-03-07T07:44:48.691Z,6.75
2023-03-07T07:49:52.384Z,6.78
2023-03-07T07:54:56.870Z,6.80
2023-03-07T08:00:00.811Z,6.83
2023-03-07T08:05:08.191Z,6.82
2023-03-07T08:10:16.964Z,6.85
2023-03-07T08:15:24.333Z,6.88
2023-03-07T08:20:27.660Z,6.95
2023-03-07T08:25:32.202Z,6.99
2023-03-07T08:30:37.065Z,7.05
2023-03-07T08:35:40.447Z,7.10
2023-03-07T08:40:43.970Z,7.16
2023-03-07T08:45:51.183Z,7.25
2023-03-07T08:50:55.369Z,7.27
2023-03-07T08:55:58.820Z,7.32
2023-03-07T09:01:05.422Z,7.41
2023-03-07T09:06:15.022Z,7.51
2023-03-07T09:11:19.720Z,7.65
2023-03-07T09:16:24.061Z,7.77
2023-03-07T09:21:27.509Z,7.89
2023-03-07T09:26:31.451Z,7.98
2023-03-07T09:31:34.689Z,8.06
2023-03-07T09:36:38.352Z,8.13
2023-03-07T09:42:18.794Z,8.19
2023-03-07T09:48:07.982Z,8.29
2023-03-07T09:53:22.500Z,8.32
2023-03-07T09:58:27.429Z,8.38
2023-03-07T10:03:58.108Z,8.45
2023-03-07T10:09:02.720Z,8.50
2023-03-07T10:14:12.514Z,8.46
2023-03-07T10:19:46.893Z,8.47
2023-03-07T10:25:34.369Z,8.46
2023-03-07T10:30:38.017Z,8.52
2023-03-07T10:35:44.003Z,8.44
2023-03-07T10:41:14.136Z,8.40
2023-03-07T10:46:28.114Z,8.44
2023-03-07T10:52:05.518Z,8.48
2023-03-07T10:57:13.446Z,8.48
2023-03-07T11:02:41.114Z,8.42
2023-03-07T11:07:44.593Z,8.34
2023-03-07T11:12:48.569Z,8.24
2023-03-07T11:17:52.860Z,8.17
2023-03-07T11:23:18.463Z,8.15
2023-03-07T11:28:33.670Z,8.16
2023-03-07T11:33:39.268Z,8.11
2023-03-07T11:38:54.184Z,8.09
2023-03-07T11:44:15.405Z,8.05
2023-03-07T11:49:33.801Z,8.11
2023-03-07T11:54:49.550Z,8.38
2023-03-07T11:59:58.897Z,8.43
2023-03-07T12:05:39.389Z,8.41
2023-03-07T12:11:06.586Z,8.38
2023-03-07T12:16:31.805Z,8.41
2023-03-07T12:21:52.692Z,8.49
2023-03-07T12:26:58.956Z,8.50
2023-03-07T12:32:09.250Z,8.54
2023-03-07T12:37:20.613Z,8.52
2023-03-07T12:42:42.330Z,8.52
2023-03-07T12:47:58.970Z,8.59
2023-03-07T12:53:16.635Z,8.68
2023-03-07T12:58:38.978Z,8.76
2023-03-07T13:03:56.969Z,8.84
2023-03-07T13:09:04.214Z,8.93
2023-03-07T13:14:30.772Z,9.06
2023-03-07T13:19:37.041Z,9.12
2023-03-07T13:24:42.704Z,9.16
2023-03-07T13:30:12.346Z,9.20
2023-03-07T13:35:28.488Z,9.25
2023-03-07T13:40:43.681Z,9.33
2023-03-07T13:45:53.361Z,9.32
2023-03-07T13:58:18.100Z,9.12
2023-03-07T14:03:29.708Z,9.06
2023-03-07T14:08:35.719Z,9.02
2023-03-07T14:13:46.087Z,9.05
2023-03-07T14:18:54.836Z,9.02
2023-03-07T14:24:13.317Z,9.01
2023-03-07T14:29:22.703Z,9.03
2023-03-07T14:34:36.065Z,9.00
2023-03-07T14:40:09.073Z,9.04
2023-03-07T14:45:28.584Z,9.12
2023-03-07T14:50:33.133Z,9.10
2023-03-07T14:55:39.928Z,9.06
2023-03-07T15:00:43.832Z,9.05
2023-03-07T15:05:48.654Z,9.06
2023-03-07T15:11:03.241Z,9.00
2023-03-07T15:16:12.559Z,8.95
2023-03-07T15:21:27.199Z,8.92
2023-03-07T15:26:32.017Z,8.90
2023-03-07T15:32:00.021Z,8.97
2023-03-07T15:37:29.221Z,9.06
2023-03-07T15:42:33.220Z,9.11
2023-03-07T15:47:37.016Z,9.18
2023-03-07T15:52:40.550Z,9.23
2023-03-07T15:57:56.920Z,9.24
2023-03-07T16:11:07.101Z,9.31
2023-03-07T16:16:13.463Z,9.31
2023-03-07T16:21:17.663Z,9.27
2023-03-07T16:26:23.892Z,9.22
2023-03-07T16:31:27.458Z,9.12
2023-03-07T16:36:30.874Z,9.03
2023-03-07T16:41:38.028Z,8.98
2023-03-07T16:46:43.690Z,8.95
2023-03-07T16:52:03.080Z,8.91
2023-03-07T16:57:14.318Z,8.89
2023-03-07T17:02:20.927Z,8.91
2023-03-07T17:07:24.440Z,8.90
2023-03-07T17:12:27.650Z,8.90
2023-03-07T17:17:33.793Z,8.90
2023-03-07T17:22:37.454Z,8.90
2023-03-07T17:27:51.499Z,8.91
2023-03-07T17:32:55.156Z,8.91
2023-03-07T17:37:58.639Z,8.90
2023-03-07T17:43:04.003Z,8.86
2023-03-07T17:48:07.281Z,8.86
2023-03-07T17:53:11.108Z,8.84
2023-03-07T17:58:14.321Z,8.79
2023-03-07T18:03:17.550Z,8.72
2023-03-07T18:08:20.893Z,8.68
2023-03-07T18:13:24.572Z,8.64
2023-03-07T18:18:33.385Z,8.56
2023-03-07T18:23:36.659Z,8.51
2023-03-07T18:28:42.223Z,8.49
2023-03-07T18:33:47.862Z,8.45
2023-03-07T18:38:51.543Z,8.40
2023-03-07T18:43:56.604Z,8.37
2023-03-07T18:49:49.335Z,8.33
2023-03-07T18:54:52.977Z,8.35
2023-03-07T18:59:57.132Z,8.36
2023-03-07T19:05:06.866Z,8.38
2023-03-07T19:11:00.032Z,8.44
2023-03-07T19:22:45.397Z,8.48
2023-03-07T19:28:17.194Z,8.51
2023-03-07T19:33:21.334Z,8.54
2023-03-07T19:38:43.226Z,8.58
2023-03-07T19:43:48.757Z,8.59
2023-03-07T19:49:09.532Z,8.60
2023-03-07T19:59:44.697Z,8.67
2023-03-07T20:04:55.959Z,8.71
2023-03-07T20:10:30.080Z,8.78
2023-03-07T20:15:40.407Z,8.83
2023-03-07T20:20:43.876Z,8.84
2023-03-07T20:26:32.278Z,8.84
2023-03-07T20:31:51.608Z,8.84
2023-03-07T20:37:12.986Z,8.85
2023-03-07T20:42:17.268Z,8.87
2023-03-07T20:47:22.236Z,8.88
2023-03-07T20:52:29.883Z,8.90
2023-03-07T20:57:42.986Z,8.95
2023-03-07T21:02:54.111Z,8.96
2023-03-07T21:08:24.237Z,8.96
2023-03-07T21:13:36.751Z,8.95
2023-03-07T21:18:46.501Z,8.95
2023-03-07T21:23:58.309Z,8.94
2023-03-07T21:29:38.780Z,8.94
2023-03-07T21:34:57.304Z,8.95
2023-03-07T21:40:06.203Z,8.95
2023-03-07T21:50:56.255Z,8.95
2023-03-07T21:56:24.136Z,9.00
2023-03-07T22:01:31.248Z,9.08
2023-03-07T22:06:36.316Z,9.14
2023-03-07T22:11:41.267Z,9.18
2023-03-07T22:16:51.321Z,9.22
2023-03-07T22:21:58.619Z,9.24
2023-03-07T22:27:05.037Z,9.27
2023-03-07T22:32:12.388Z,9.29
2023-03-07T22:37:18.685Z,9.31
2023-03-07T22:42:26.739Z,9.33
2023-03-07T22:47:31.504Z,9.35
2023-03-07T22:58:21.036Z,9.32
2023-03-07T23:03:32.497Z,9.30
2023-03-07T23:08:36.568Z,9.27
2023-03-07T23:13:53.738Z,9.27
2023-03-07T23:18:59.919Z,9.27
2023-03-07T23:24:05.095Z,9.26
2023-03-07T23:29:10.630Z,9.27
2023-03-07T23:34:18.109Z,9.29
2023-03-07T23:39:32.648Z,9.27
2023-03-07T23:44:39.625Z,9.31
2023-03-07T23:49:46.263Z,9.29
2023-03-07T23:54:56.838Z,9.29
